Time;durP1;ratioP1;P1;durP2;ratioP2;P2;SDS_P1;SDS_P2;PMS_P1;PMS_P2;Temp;Humidity;BMP_temperature;BMP_pressure;BME280_temperature;BME280_humidity;BME280_pressure;Samples;Min_cycle;Max_cycle;Signal;HPM_P1;HPM_P2
2022/05/12 00:00:57;;;;;;;6.85;1.87;;;19.00;99.90;;;;;;1903245;75;21083;-79
2022/05/12 00:03:48;;;;;;;5.35;1.30;;;18.90;99.90;;;;;;1908446;74;21063;-79
2022/05/12 00:06:39;;;;;;;4.40;1.55;;;18.90;99.90;;;;;;1893891;75;21129;-79
2022/05/12 00:12:11;;;;;;;4.37;1.57;;;18.80;99.90;;;;;;1958110;72;22306;-78
2022/05/12 00:15:24;;;;;;;3.92;1.60;;;18.80;99.90;;;;;;1901909;75;21114;-79
2022/05/12 00:18:33;;;;;;;2.62;1.30;;;18.80;99.90;;;;;;1888577;75;21058;-79
2022/05/12 00:21:25;;;;;;;3.83;1.20;;;18.90;99.90;;;;;;1899162;75;21176;-79
2022/05/12 00:24:36;;;;;;;5.12;1.80;;;18.90;99.90;;;;;;1896584;75;21566;-79
2022/05/12 00:27:28;;;;;;;4.08;2.00;;;18.80;99.90;;;;;;1891320;75;21047;-79
2022/05/12 00:30:19;;;;;;;5.10;1.87;;;18.70;99.90;;;;;;1896038;75;21060;-79
2022/05/12 00:33:11;;;;;;;4.85;1.80;;;18.70;99.90;;;;;;1901604;75;21063;-79
2022/05/12 00:36:03;;;;;;;5.30;1.82;;;18.60;99.90;;;;;;1893144;75;21092;-79
2022/05/12 00:38:55;;;;;;;8.18;2.02;;;18.60;99.90;;;;;;1906661;75;21070;-79
2022/05/12 00:41:46;;;;;;;7.83;2.33;;;18.50;99.90;;;;;;1906673;75;21051;-79
2022/05/12 00:47:20;;;;;;;4.80;1.60;;;18.40;99.90;;;;;;1963253;72;22111;-78
2022/05/12 00:50:33;;;;;;;5.22;1.65;;;18.30;99.90;;;;;;1932659;73;21112;-78
2022/05/12 00:53:43;;;;;;;6.10;1.90;;;18.20;99.90;;;;;;1917739;73;21117;-78
2022/05/12 00:56:37;;;;;;;4.85;1.87;;;18.20;99.90;;;;;;1940294;73;21125;-78
2022/05/12 00:59:46;;;;;;;8.80;1.60;;;18.10;99.90;;;;;;1925978;73;21176;-78
2022/05/12 01:02:39;;;;;;;4.28;1.90;;;18.00;99.90;;;;;;1929615;73;21105;-78
2022/05/12 01:08:16;;;;;;;7.33;1.92;;;18.10;99.90;;;;;;1947688;72;22153;-78
2022/05/12 01:14:07;;;;;;;7.72;1.95;;;17.90;99.90;;;;;;1954215;72;22153;-78
2022/05/12 01:17:19;;;;;;;4.55;2.10;;;17.80;99.90;;;;;;1917772;75;21048;-79
2022/05/12 01:20:29;;;;;;;5.95;2.08;;;17.80;99.90;;;;;;1897486;75;21087;-78
2022/05/12 01:23:26;;;;;;;5.83;1.90;;;17.70;99.90;;;;;;1884835;76;21087;-78
2022/05/12 01:26:36;;;;;;;3.75;1.60;;;17.70;99.90;;;;;;1900510;75;21047;-79
2022/05/12 01:32:10;;;;;;;6.70;2.02;;;17.70;99.90;;;;;;1939326;72;22255;-78
2022/05/12 01:37:59;;;;;;;6.40;1.65;;;17.70;99.90;;;;;;1942973;72;22232;-78
2022/05/12 01:41:09;;;;;;;6.05;2.05;;;17.70;99.90;;;;;;1931906;73;21048;-78
2022/05/12 01:44:18;;;;;;;7.42;1.80;;;17.70;99.90;;;;;;1931852;73;21058;-79
2022/05/12 01:47:13;;;;;;;9.95;1.75;;;17.70;99.90;;;;;;1940499;73;21118;-78
2022/05/12 01:50:23;;;;;;;7.22;1.85;;;17.60;99.90;;;;;;1918100;73;21070;-78
2022/05/12 01:53:16;;;;;;;5.03;2.10;;;17.50;99.90;;;;;;1940250;73;21110;-78
2022/05/12 01:56:09;;;;;;;4.45;1.82;;;17.50;99.90;;;;;;1911398;75;21100;-78
2022/05/12 01:59:00;;;;;;;4.35;2.00;;;17.40;99.90;;;;;;1926867;73;21551;-78
2022/05/12 02:01:52;;;;;;;4.12;1.65;;;17.50;99.90;;;;;;1927915;73;21177;-78
2022/05/12 02:04:47;;;;;;;6.92;2.02;;;17.40;99.90;;;;;;1924424;73;21051;-78
2022/05/12 02:07:38;;;;;;;4.40;1.92;;;17.40;99.90;;;;;;1950328;73;21055;-78
2022/05/12 02:13:09;;;;;;;3.87;1.62;;;17.20;99.90;;;;;;1966932;72;22269;-78
2022/05/12 02:16:19;;;;;;;3.92;1.47;;;17.10;99.90;;;;;;1940339;73;21048;-78
2022/05/12 02:22:06;;;;;;;3.15;1.40;;;16.80;99.90;;;;;;1958423;72;22229;-78
2022/05/12 02:25:16;;;;;;;5.50;1.92;;;16.90;99.90;;;;;;1917680;75;21051;-78
2022/05/12 02:28:26;;;;;;;6.17;1.75;;;16.90;99.90;;;;;;1903750;75;21048;-78
2022/05/12 02:31:17;;;;;;;5.03;1.87;;;17.00;99.90;;;;;;1898577;75;21071;-78
2022/05/12 02:37:08;;;;;;;6.28;1.98;;;17.00;99.90;;;;;;1948234;72;22348;-78
2022/05/12 02:40:21;;;;;;;5.55;2.00;;;17.00;99.90;;;;;;1927643;73;21094;-79
2022/05/12 02:43:31;;;;;;;3.52;1.57;;;16.90;99.90;;;;;;1920933;73;21112;-79
2022/05/12 02:46:23;;;;;;;3.55;1.60;;;16.90;99.90;;;;;;1949376;73;21138;-79
2022/05/12 02:49:32;;;;;;;7.70;2.05;;;16.80;99.90;;;;;;1917715;75;21275;-79
2022/05/12 02:52:24;;;;;;;4.40;1.47;;;16.80;99.90;;;;;;1931915;73;21055;-79
2022/05/12 02:55:16;;;;;;;4.03;1.35;;;16.90;99.90;;;;;;1919644;73;21059;-78
2022/05/12 02:58:08;;;;;;;2.17;1.45;;;16.90;99.90;;;;;;1921477;73;21142;-78
2022/05/12 03:01:01;;;;;;;3.37;1.60;;;16.90;99.90;;;;;;1930310;73;21112;-78
2022/05/12 03:03:53;;;;;;;6.17;1.70;;;16.90;99.90;;;;;;1917719;75;21589;-78
2022/05/12 03:06:44;;;;;;;4.53;2.00;;;16.80;99.90;;;;;;1940415;73;21071;-78
2022/05/12 03:12:14;;;;;;;4.33;1.72;;;16.70;99.90;;;;;;1955939;72;22175;-78
2022/05/12 03:18:04;;;;;;;3.08;1.47;;;16.70;99.90;;;;;;1942062;72;22796;-78
2022/05/12 03:21:13;;;;;;;5.70;2.08;;;16.70;99.90;;;;;;1922072;74;21058;-78
2022/05/12 03:24:23;;;;;;;6.28;1.80;;;16.70;99.90;;;;;;1916769;74;21565;-78
2022/05/12 03:27:15;;;;;;;4.03;1.72;;;16.70;99.90;;;;;;1911579;75;21341;-78
2022/05/12 03:30:26;;;;;;;4.78;1.60;;;16.50;99.90;;;;;;1917474;75;21096;-78
2022/05/12 03:33:18;;;;;;;3.87;1.62;;;16.40;99.90;;;;;;1921432;74;21147;-78
2022/05/12 03:36:10;;;;;;;2.55;1.35;;;16.40;99.90;;;;;;1900895;74;21085;-78
2022/05/12 03:39:01;;;;;;;2.98;1.60;;;16.30;99.90;;;;;;1919712;74;21090;-78
2022/05/12 03:41:53;;;;;;;3.92;2.47;;;16.30;99.90;;;;;;1913847;74;21079;-78
2022/05/12 03:44:47;;;;;;;7.37;2.05;;;16.30;99.90;;;;;;1913193;74;21182;-78
2022/05/12 03:47:39;;;;;;;2.83;1.75;;;16.20;99.90;;;;;;1899778;75;21086;-79
2022/05/12 03:50:31;;;;;;;5.90;1.70;;;16.30;99.90;;;;;;1911286;74;21489;-78
2022/05/12 03:53:25;;;;;;;4.83;2.02;;;16.20;99.90;;;;;;1919782;74;21115;-78
2022/05/12 03:56:16;;;;;;;5.05;1.80;;;16.10;99.90;;;;;;1919835;74;21160;-78
2022/05/12 03:59:07;;;;;;;8.08;2.10;;;16.10;99.90;;;;;;1924066;74;21184;-78
2022/05/12 04:01:58;;;;;;;3.00;1.42;;;16.00;99.90;;;;;;1898546;74;21145;-78
2022/05/12 04:04:50;;;;;;;5.50;1.72;;;16.00;99.90;;;;;;1919760;74;21077;-78
2022/05/12 04:07:44;;;;;;;6.22;1.75;;;16.00;99.90;;;;;;1919588;74;21187;-78
2022/05/12 04:10:36;;;;;;;2.95;1.42;;;15.90;99.90;;;;;;1899112;75;21205;-78
2022/05/12 04:13:27;;;;;;;4.75;1.67;;;16.00;99.90;;;;;;1898346;75;21075;-78
2022/05/12 04:16:19;;;;;;;4.62;1.45;;;15.90;99.90;;;;;;1919315;74;21150;-78
2022/05/12 04:19:11;;;;;;;7.50;1.50;;;15.90;99.90;;;;;;1914878;74;21112;-78
2022/05/12 04:22:03;;;;;;;6.15;2.00;;;15.90;99.90;;;;;;1909290;74;21054;-78
2022/05/12 04:27:36;;;;;;;1.67;1.32;;;15.90;99.90;;;;;;1945048;72;22284;-77
2022/05/12 04:30:47;;;;;;;4.50;1.87;;;15.90;99.90;;;;;;1917072;73;21066;-78
2022/05/12 04:37:06;;;;;;;4.62;1.95;;;15.90;99.90;;;;;;1940287;73;21158;-78
2022/05/12 04:43:00;;;;;;;4.72;1.90;;;15.80;99.90;;;;;;1958095;72;22262;-77
2022/05/12 04:46:10;;;;;;;8.40;2.52;;;15.80;99.90;;;;;;1890554;75;21152;-78
2022/05/12 04:52:01;;;;;;;4.00;2.02;;;15.70;99.90;;;;;;1926429;72;22154;-77
2022/05/12 04:55:11;;;;;;;7.17;2.08;;;15.80;99.90;;;;;;1918054;74;21069;-77
2022/05/12 04:58:22;;;;;;;4.37;1.67;;;15.80;99.90;;;;;;1901786;73;21120;-77
2022/05/12 05:01:13;;;;;;;5.65;1.72;;;15.80;99.90;;;;;;1911094;75;21084;-77
2022/05/12 05:04:23;;;;;;;7.45;2.17;;;15.80;99.90;;;;;;1895388;75;21588;-76
2022/05/12 05:07:14;;;;;;;4.97;2.08;;;15.80;99.90;;;;;;1901201;75;21052;-77
2022/05/12 05:10:08;;;;;;;6.08;1.90;;;15.90;99.90;;;;;;1896271;75;21350;-77
2022/05/12 05:12:59;;;;;;;7.47;2.02;;;15.90;99.90;;;;;;1894980;75;21130;-77
2022/05/12 05:15:53;;;;;;;8.53;2.20;;;16.00;99.90;;;;;;1889440;75;21585;-77
2022/05/12 05:18:45;;;;;;;4.42;2.05;;;16.00;99.90;;;;;;1917536;75;21175;-77
2022/05/12 05:21:37;;;;;;;5.20;2.05;;;16.00;99.90;;;;;;1898256;75;21058;-77
2022/05/12 05:27:08;;;;;;;4.70;2.10;;;16.10;99.90;;;;;;1953036;72;22311;-77
2022/05/12 05:30:21;;;;;;;7.40;2.70;;;16.10;99.90;;;;;;1905716;75;21098;-77
2022/05/12 05:33:31;;;;;;;5.10;2.42;;;16.10;99.90;;;;;;1895925;75;21094;-77
2022/05/12 05:36:22;;;;;;;7.92;2.30;;;16.10;99.90;;;;;;1912643;75;21051;-77
2022/05/12 05:42:13;;;;;;;5.62;2.40;;;16.10;99.90;;;;;;1934452;72;22282;-77
2022/05/12 05:48:05;;;;;;;9.33;2.42;;;16.20;99.90;;;;;;1954206;72;22131;-77
2022/05/12 05:54:42;;;;;;;8.40;2.47;;;16.30;99.90;;;;;;1907728;75;21667;-79
2022/05/12 05:57:36;;;;;;;6.97;2.42;;;16.20;99.90;;;;;;1901752;75;21107;-78
2022/05/12 06:00:46;;;;;;;10.32;2.80;;;16.10;99.90;;;;;;1905204;75;21351;-78
2022/05/12 06:03:38;;;;;;;14.58;5.30;;;16.20;99.90;;;;;;1895686;75;21182;-78
2022/05/12 06:06:29;;;;;;;10.50;2.83;;;16.20;99.90;;;;;;1910827;75;21062;-78
2022/05/12 06:12:00;;;;;;;4.15;2.30;;;16.30;99.90;;;;;;1940432;72;22130;-76
2022/05/12 06:17:49;;;;;;;8.38;2.75;;;16.40;99.90;;;;;;1942732;72;22242;-77
2022/05/12 06:21:03;;;;;;;5.87;2.27;;;16.40;99.90;;;;;;1895171;75;21098;-77
2022/05/12 06:24:13;;;;;;;5.90;2.15;;;16.30;99.90;;;;;;1895167;75;21094;-77
2022/05/12 06:27:05;;;;;;;7.83;2.72;;;16.40;99.90;;;;;;1906245;75;21109;-77
2022/05/12 06:33:00;;;;;;;5.17;2.70;;;16.60;99.90;;;;;;1954670;72;22716;-76
2022/05/12 06:36:10;;;;;;;8.33;2.85;;;16.80;99.90;;;;;;1897839;75;21468;-78
2022/05/12 06:41:58;;;;;;;10.55;2.75;;;16.90;99.90;;;;;;1936856;72;22679;-77
2022/05/12 06:45:11;;;;;;;8.95;2.90;;;17.00;99.90;;;;;;1894992;75;21122;-79
2022/05/12 06:48:21;;;;;;;7.22;2.80;;;17.00;99.90;;;;;;1906249;75;21172;-77
2022/05/12 06:53:51;;;;;;;6.00;2.52;;;17.20;99.90;;;;;;1955950;72;22586;-77
2022/05/12 06:59:41;;;;;;;9.10;3.15;;;17.40;99.90;;;;;;1951657;72;22094;-76
2022/05/12 07:02:52;;;;;;;14.58;3.02;;;17.50;99.90;;;;;;1884582;75;21048;-78
2022/05/12 07:06:03;;;;;;;6.35;2.30;;;17.60;99.90;;;;;;1906496;75;21056;-78
2022/05/12 07:08:56;;;;;;;6.10;2.40;;;17.70;99.90;;;;;;1902007;75;21080;-78
2022/05/12 07:12:11;;;;;;;6.05;2.80;;;17.80;99.90;;;;;;1902033;75;21091;-77
2022/05/12 07:15:06;;;;;;;6.60;2.60;;;17.80;99.90;;;;;;1897002;75;21164;-77
2022/05/12 07:17:59;;;;;;;7.87;2.62;;;17.90;99.90;;;;;;1895324;75;21112;-77
2022/05/12 07:27:11;;;;;;;7.35;2.50;;;18.10;99.90;;;;;;1906915;75;21148;-78
2022/05/12 07:32:41;;;;;;;4.67;2.40;;;18.10;99.90;;;;;;1941381;72;22121;-77
2022/05/12 07:35:51;;;;;;;8.35;3.00;;;18.20;99.90;;;;;;1917648;75;21529;-77
2022/05/12 07:39:02;;;;;;;7.42;2.72;;;18.30;99.90;;;;;;1921885;74;21074;-78
2022/05/12 07:41:54;;;;;;;8.70;2.37;;;18.40;99.90;;;;;;1914966;74;21049;-77
2022/05/12 07:45:06;;;;;;;7.65;2.40;;;18.50;99.90;;;;;;1918094;74;21108;-77
2022/05/12 07:47:57;;;;;;;7.65;2.52;;;18.50;99.90;;;;;;1920110;74;21157;-77
2022/05/12 07:53:28;;;;;;;8.35;2.62;;;18.60;99.90;;;;;;1933760;72;22271;-77
2022/05/12 07:56:38;;;;;;;9.08;2.65;;;18.70;99.90;;;;;;1905919;74;21533;-78
2022/05/12 08:02:28;;;;;;;8.40;2.60;;;18.70;99.90;;;;;;1938319;72;22284;-77
2022/05/12 08:08:17;;;;;;;6.10;2.30;;;18.90;99.90;;;;;;1948811;72;22283;-77
2022/05/12 08:11:27;;;;;;;9.45;2.52;;;19.10;99.90;;;;;;1902719;73;21124;-77
2022/05/12 08:17:16;;;;;;;9.45;2.75;;;19.20;99.90;;;;;;1944124;72;22294;-77
2022/05/12 08:20:28;;;;;;;8.28;2.30;;;19.20;99.90;;;;;;1923859;74;21088;-78
2022/05/12 08:23:38;;;;;;;5.85;2.30;;;19.30;99.90;;;;;;1924049;74;21097;-78
2022/05/12 08:26:29;;;;;;;11.10;2.40;;;19.20;99.90;;;;;;1923869;74;21133;-78
2022/05/12 08:29:41;;;;;;;7.25;2.40;;;19.20;99.90;;;;;;1923974;73;21143;-77
2022/05/12 08:32:32;;;;;;;11.68;2.80;;;19.20;99.90;;;;;;1946750;73;21049;-79
2022/05/12 08:35:24;;;;;;;8.28;2.40;;;19.50;99.90;;;;;;1923624;74;21074;-77
2022/05/12 08:38:16;;;;;;;6.47;2.37;;;19.50;99.90;;;;;;1944897;73;21158;-78
2022/05/12 08:41:15;;;;;;;5.22;2.10;;;19.60;99.90;;;;;;1939378;73;21086;-79
2022/05/12 08:44:10;;;;;;;6.70;2.10;;;19.70;99.90;;;;;;1923972;74;21053;-78
2022/05/12 08:47:05;;;;;;;4.92;2.42;;;19.80;99.90;;;;;;1923744;74;21045;-78
2022/05/12 08:49:58;;;;;;;7.25;2.55;;;19.80;99.90;;;;;;1923813;74;21038;-78
2022/05/12 08:52:52;;;;;;;5.22;2.10;;;19.80;99.90;;;;;;1923754;74;21105;-78
2022/05/12 08:55:48;;;;;;;6.33;2.20;;;19.90;99.90;;;;;;1927485;73;21041;-77
2022/05/12 08:58:42;;;;;;;7.28;2.95;;;19.80;99.90;;;;;;1935341;73;21049;-78
2022/05/12 09:07:07;;;;;;;8.15;2.55;;;20.10;99.90;;;;;;1948108;72;22205;-77
2022/05/12 09:10:39;;;;;;;4.62;1.92;;;20.20;99.90;;;;;;1932425;73;21032;-77
2022/05/12 09:13:53;;;;;;;5.28;1.77;;;20.40;99.90;;;;;;1917354;75;21107;-78
2022/05/12 09:16:44;;;;;;;6.25;2.05;;;20.50;99.90;;;;;;1917315;75;21051;-77
2022/05/12 09:22:34;;;;;;;4.40;2.30;;;20.70;99.90;;;;;;1943511;72;22228;-77
2022/05/12 09:25:47;;;;;;;6.60;2.12;;;20.80;99.90;;;;;;1906905;75;21347;-77
2022/05/12 09:29:03;;;;;;;3.17;1.82;;;20.90;99.90;;;;;;1906762;75;21163;-78
2022/05/12 09:31:58;;;;;;;5.22;1.82;;;21.00;99.90;;;;;;1906416;75;21102;-78
2022/05/12 09:35:22;;;;;;;2.92;1.98;;;21.10;99.90;;;;;;1906765;75;21090;-79
2022/05/12 09:38:25;;;;;;;6.22;2.20;;;21.20;99.90;;;;;;1917387;75;21095;-77
2022/05/12 09:41:20;;;;;;;3.55;2.00;;;21.30;99.90;;;;;;1910538;75;21510;-77
2022/05/12 09:44:19;;;;;;;3.33;1.70;;;21.40;99.90;;;;;;1897378;75;21364;-77
2022/05/12 09:47:14;;;;;;;6.33;1.80;;;21.50;99.90;;;;;;1906844;75;21055;-77
2022/05/12 09:50:17;;;;;;;3.72;1.77;;;21.70;99.90;;;;;;1908035;75;21059;-77
2022/05/12 09:53:11;;;;;;;5.28;1.75;;;21.80;99.90;;;;;;1907029;75;21173;-77
2022/05/12 09:56:06;;;;;;;2.85;1.98;;;21.80;99.90;;;;;;1903200;75;21059;-78
2022/05/12 09:59:07;;;;;;;5.03;2.15;;;21.90;99.90;;;;;;1898408;75;21051;-77
2022/05/12 10:02:01;;;;;;;4.83;2.02;;;22.00;99.90;;;;;;1917361;75;21172;-78
2022/05/12 10:08:18;;;;;;;6.90;2.27;;;22.20;99.90;;;;;;1874737;74;21114;-79
2022/05/12 10:11:13;;;;;;;4.37;1.80;;;22.30;99.90;;;;;;1906082;75;21667;-79
2022/05/12 10:14:07;;;;;;;6.25;2.40;;;22.40;99.90;;;;;;1895257;75;21085;-79
2022/05/12 10:17:01;;;;;;;5.50;2.25;;;22.60;99.90;;;;;;1901519;75;21167;-78
2022/05/12 10:22:41;;;;;;;4.67;2.10;;;22.70;99.90;;;;;;1951352;72;22086;-77
2022/05/12 10:26:00;;;;;;;4.80;2.20;;;22.80;99.90;;;;;;1906710;75;21102;-77
2022/05/12 10:29:15;;;;;;;4.20;1.80;;;22.70;99.90;;;;;;1906915;75;21059;-77
2022/05/12 10:32:10;;;;;;;3.72;1.75;;;22.80;99.90;;;;;;1906847;75;21106;-77
2022/05/12 10:35:23;;;;;;;6.37;1.82;;;22.80;99.90;;;;;;1906718;75;21050;-77
2022/05/12 10:38:19;;;;;;;3.60;1.80;;;23.00;99.90;;;;;;1902905;75;21106;-77
2022/05/12 10:44:16;;;;;;;4.33;2.08;;;23.10;99.90;;;;;;1946218;72;22184;-77
2022/05/12 10:47:30;;;;;;;4.28;1.75;;;23.10;99.90;;;;;;1940107;73;21119;-79
2022/05/12 10:50:43;;;;;;;4.95;1.92;;;23.40;99.90;;;;;;1931853;73;21135;-78
2022/05/12 10:53:48;;;;;;;5.37;1.60;;;23.60;99.90;;;;;;1946557;73;21157;-78
2022/05/12 10:57:05;;;;;;;5.67;2.30;;;23.80;99.90;;;;;;1917267;75;21104;-78
2022/05/12 11:02:48;;;;;;;4.10;1.95;;;24.10;99.90;;;;;;1939429;72;22169;-77
2022/05/12 11:08:39;;;;;;;4.90;1.60;;;24.30;99.90;;;;;;1955983;72;22102;-77
2022/05/12 11:11:51;;;;;;;5.92;1.98;;;24.30;99.90;;;;;;1898021;75;21040;-78
2022/05/12 11:15:04;;;;;;;3.75;1.90;;;24.40;99.90;;;;;;1899670;75;21101;-77
2022/05/12 11:17:59;;;;;;;7.20;1.95;;;24.50;99.90;;;;;;1891605;75;21160;-77
2022/05/12 11:21:17;;;;;;;6.95;2.15;;;24.60;99.90;;;;;;1908687;75;21584;-78
2022/05/12 11:27:45;;;;;;;5.17;2.08;;;24.80;99.90;;;;;;1947582;72;22279;-77
2022/05/12 11:31:00;;;;;;;5.58;1.70;;;24.80;99.90;;;;;;1862115;75;21111;-79
2022/05/12 11:34:14;;;;;;;5.90;1.98;;;24.80;99.90;;;;;;1895173;75;21059;-79
2022/05/12 11:37:29;;;;;;;5.17;2.00;;;24.90;99.90;;;;;;1914473;75;21092;-78
2022/05/12 11:40:52;;;;;;;5.45;2.08;;;24.90;99.90;;;;;;1908646;75;21059;-78
2022/05/12 11:47:16;;;;;;;5.85;2.62;;;25.10;99.90;;;;;;1883505;75;21594;-78
2022/05/12 11:50:27;;;;;;;5.58;2.10;;;25.10;99.90;;;;;;1905356;75;21199;-78
2022/05/12 11:53:22;;;;;;;4.75;1.87;;;25.20;99.90;;;;;;1906540;75;21154;-78
2022/05/12 11:56:14;;;;;;;5.97;2.20;;;25.30;99.90;;;;;;1906544;75;21137;-78
2022/05/12 11:59:40;;;;;;;5.72;1.75;;;25.30;99.90;;;;;;1900431;75;21555;-78
2022/05/12 12:03:00;;;;;;;6.72;2.25;;;25.20;99.90;;;;;;1903676;75;21082;-78
2022/05/12 12:06:05;;;;;;;6.35;1.92;;;25.30;99.90;;;;;;1891543;75;21501;-78
2022/05/12 12:09:02;;;;;;;3.27;1.80;;;25.30;99.90;;;;;;1902764;75;21142;-78
2022/05/12 12:11:54;;;;;;;5.45;2.00;;;25.40;99.90;;;;;;1913534;75;21201;-78
2022/05/12 12:17:40;;;;;;;7.22;2.02;;;25.50;99.90;;;;;;1948424;72;22188;-77
2022/05/12 12:20:53;;;;;;;7.28;2.10;;;25.50;99.90;;;;;;1933532;73;21093;-77
2022/05/12 12:24:09;;;;;;;7.10;2.37;;;25.60;99.90;;;;;;1917613;75;21055;-77
2022/05/12 12:27:17;;;;;;;3.40;2.10;;;25.70;99.90;;;;;;1917395;75;21164;-77
2022/05/12 12:30:30;;;;;;;;;;;25.70;99.90;;;;;;1920223;75;21087;-79
2022/05/12 12:33:44;;;;;;;3.65;1.98;;;25.70;99.90;;;;;;1917462;75;20161;-78
2022/05/12 12:39:43;;;;;;;5.62;1.90;;;25.70;99.90;;;;;;1955684;72;22184;-77
2022/05/12 12:42:53;;;;;;;6.08;1.85;;;25.70;99.90;;;;;;1884567;76;21209;-78
2022/05/12 12:46:13;;;;;;;7.08;2.20;;;25.80;99.90;;;;;;1884747;76;21112;-78
2022/05/12 12:49:10;;;;;;;5.80;2.02;;;25.70;99.90;;;;;;1897453;75;21121;-78
2022/05/12 12:52:21;;;;;;;3.27;1.90;;;26.00;99.90;;;;;;1897720;75;21055;-78
2022/05/12 12:58:39;;;;;;;4.92;2.20;;;26.20;99.90;;;;;;1895191;75;21051;-78
2022/05/12 13:01:41;;;;;;;8.68;2.10;;;26.30;99.90;;;;;;1895443;75;21092;-78
2022/05/12 13:04:34;;;;;;;5.40;2.10;;;26.40;99.90;;;;;;1892983;75;21104;-78
2022/05/12 13:07:32;;;;;;;5.37;2.12;;;26.40;99.90;;;;;;1903793;75;21551;-78
2022/05/12 13:10:24;;;;;;;6.30;2.20;;;26.40;99.90;;;;;;1908937;75;21113;-78
2022/05/12 13:13:16;;;;;;;6.60;2.08;;;26.50;99.90;;;;;;1884530;76;21067;-78
2022/05/12 13:16:08;;;;;;;4.37;1.95;;;26.30;99.90;;;;;;1906782;75;21474;-78
2022/05/12 13:19:01;;;;;;;6.28;1.98;;;26.40;99.90;;;;;;1906512;75;21130;-78
2022/05/12 13:21:52;;;;;;;9.35;2.50;;;26.40;99.90;;;;;;1902014;75;21092;-79
2022/05/12 13:24:45;;;;;;;10.93;2.40;;;26.40;99.90;;;;;;1896565;75;21110;-79
2022/05/12 13:27:38;;;;;;;9.23;2.27;;;26.40;99.90;;;;;;1895793;75;21109;-79
2022/05/12 13:30:37;;;;;;;8.45;2.30;;;26.60;99.90;;;;;;1894941;75;21191;-78
2022/05/12 13:33:30;;;;;;;8.18;2.25;;;26.70;99.90;;;;;;1896348;75;21088;-78
2022/05/12 13:36:25;;;;;;;5.87;2.30;;;26.60;99.90;;;;;;1900582;75;21090;-78
2022/05/12 13:39:58;;;;;;;9.05;1.92;;;26.80;99.90;;;;;;1905595;74;21134;-78
2022/05/12 13:42:49;;;;;;;7.20;2.37;;;27.00;99.90;;;;;;1916049;74;21097;-78
2022/05/12 13:45:42;;;;;;;7.03;2.08;;;27.00;99.90;;;;;;1900791;74;21141;-78
2022/05/12 13:48:36;;;;;;;6.35;2.02;;;27.10;99.90;;;;;;1922766;74;21122;-78
2022/05/12 13:51:53;;;;;;;7.08;2.12;;;27.20;99.90;;;;;;1921912;74;21109;-78
2022/05/12 13:55:06;;;;;;;7.67;2.70;;;27.30;99.60;;;;;;1922210;74;21113;-78
2022/05/12 13:58:14;;;;;;;8.03;2.15;;;27.40;99.00;;;;;;1921924;74;21561;-78
2022/05/12 14:01:06;;;;;;;9.63;2.70;;;27.50;98.80;;;;;;1921922;74;21101;-78
2022/05/12 14:04:14;;;;;;;8.43;2.80;;;27.80;97.90;;;;;;1916353;74;21093;-79
2022/05/12 14:07:06;;;;;;;6.42;2.25;;;27.90;97.20;;;;;;1914829;74;21051;-78
2022/05/12 14:10:02;;;;;;;6.28;2.10;;;28.00;97.00;;;;;;1900625;74;21087;-78
2022/05/12 14:19:19;;;;;;;7.40;2.02;;;28.10;96.20;;;;;;1899575;75;21117;-78
2022/05/12 14:22:13;;;;;;;11.48;2.47;;;28.00;95.90;;;;;;1899295;75;21517;-78
2022/05/12 14:25:06;;;;;;;6.78;2.12;;;28.20;95.90;;;;;;1899803;74;21101;-78
2022/05/12 14:27:58;;;;;;;6.67;2.42;;;28.30;95.30;;;;;;1899696;75;21183;-78
2022/05/12 14:30:50;;;;;;;10.05;2.22;;;28.40;95.20;;;;;;1922201;74;21054;-78
2022/05/12 14:33:42;;;;;;;7.15;2.08;;;28.40;94.80;;;;;;1922057;74;21094;-78
2022/05/12 14:36:34;;;;;;;8.15;2.25;;;28.10;94.60;;;;;;1899772;75;21065;-78
2022/05/12 14:39:25;;;;;;;7.17;2.20;;;28.00;94.80;;;;;;1907382;74;21074;-78
2022/05/12 14:42:17;;;;;;;8.45;2.47;;;28.10;95.00;;;;;;1887502;75;21060;-78
2022/05/12 14:45:11;;;;;;;6.95;2.37;;;28.30;94.20;;;;;;1883963;76;21160;-79
2022/05/12 14:48:05;;;;;;;9.65;2.15;;;28.40;93.70;;;;;;1902950;75;21152;-78
2022/05/12 14:50:57;;;;;;;4.45;2.05;;;28.50;93.50;;;;;;1883878;76;21196;-78
2022/05/12 14:53:50;;;;;;;4.50;2.15;;;28.60;93.20;;;;;;1906073;75;21055;-80
2022/05/12 14:56:42;;;;;;;6.22;2.02;;;28.70;92.90;;;;;;1910250;75;21191;-80
2022/05/12 14:59:35;;;;;;;5.47;2.08;;;28.50;92.90;;;;;;1895020;75;21134;-79
2022/05/12 15:02:30;;;;;;;8.50;2.60;;;28.70;92.90;;;;;;1900249;75;21047;-79
2022/05/12 15:05:23;;;;;;;5.97;1.95;;;28.90;92.50;;;;;;1895729;75;21148;-79
2022/05/12 15:08:15;;;;;;;5.25;2.20;;;28.90;92.10;;;;;;1894585;75;21083;-79
2022/05/12 15:11:08;;;;;;;11.08;1.95;;;29.20;91.90;;;;;;1894318;75;21212;-79
2022/05/12 15:14:00;;;;;;;7.37;2.52;;;29.20;91.40;;;;;;1912941;75;21054;-79
2022/05/12 15:16:52;;;;;;;6.62;2.95;;;29.00;91.50;;;;;;1899595;75;21133;-78
2022/05/12 15:19:47;;;;;;;4.37;2.17;;;28.90;91.70;;;;;;1894767;75;21051;-79
2022/05/12 15:22:38;;;;;;;5.70;2.42;;;28.80;91.50;;;;;;1894613;75;21117;-79
2022/05/12 15:25:30;;;;;;;7.05;2.17;;;28.70;91.90;;;;;;1893623;75;21054;-78
2022/05/12 15:28:25;;;;;;;9.98;2.17;;;28.50;91.90;;;;;;1883939;76;21635;-78
2022/05/12 15:31:16;;;;;;;5.22;2.70;;;28.30;92.10;;;;;;1897602;75;21066;-79
2022/05/12 15:34:11;;;;;;;9.38;2.70;;;28.10;92.30;;;;;;1894645;75;21569;-78
2022/05/12 15:37:02;;;;;;;5.80;2.22;;;27.70;92.80;;;;;;1895007;75;21114;-79
2022/05/12 15:39:53;;;;;;;8.98;2.62;;;27.40;93.40;;;;;;1895956;75;21071;-78
2022/05/12 15:42:46;;;;;;;6.20;2.50;;;27.10;93.70;;;;;;1883844;76;21134;-78
2022/05/12 15:45:40;;;;;;;6.00;2.22;;;27.20;93.70;;;;;;1882892;75;21083;-78
2022/05/12 15:48:33;;;;;;;5.62;2.40;;;27.20;93.90;;;;;;1882690;75;21528;-78
2022/05/12 15:51:25;;;;;;;6.80;2.33;;;27.30;93.80;;;;;;1894705;75;21051;-78
2022/05/12 15:54:17;;;;;;;5.15;2.00;;;27.40;93.90;;;;;;1885947;75;21495;-78
2022/05/12 15:57:09;;;;;;;7.35;2.30;;;27.40;93.70;;;;;;1871791;77;21503;-78
2022/05/12 16:00:01;;;;;;;8.10;2.62;;;27.50;93.60;;;;;;1905511;75;21084;-78
2022/05/12 16:02:54;;;;;;;7.25;2.15;;;27.60;93.70;;;;;;1893895;75;21058;-78
2022/05/12 16:05:49;;;;;;;6.03;2.35;;;27.50;93.50;;;;;;1892891;75;21175;-79
2022/05/12 16:08:40;;;;;;;5.25;2.05;;;27.40;93.60;;;;;;1888036;75;21055;-78
2022/05/12 16:12:16;;;;;;;8.05;2.47;;;27.30;93.80;;;;;;1886337;75;21087;-78
2022/05/12 16:14:51;;;;;;;5.40;2.40;;;27.10;94.10;;;;;;1893450;75;21168;-78
2022/05/12 16:17:46;;;;;;;5.58;2.60;;;27.00;94.30;;;;;;1905649;75;21145;-78
2022/05/12 16:20:36;;;;;;;5.62;2.17;;;26.70;95.10;;;;;;1905762;75;21083;-79
2022/05/12 16:23:28;;;;;;;4.87;2.15;;;26.70;95.20;;;;;;1901310;75;21052;-79
2022/05/12 16:26:20;;;;;;;5.95;2.50;;;26.80;95.00;;;;;;1895934;75;21048;-78
2022/05/12 16:29:15;;;;;;;6.30;2.70;;;26.70;94.70;;;;;;1886808;75;21099;-79
2022/05/12 16:32:10;;;;;;;5.85;2.40;;;26.60;95.10;;;;;;1905854;75;21098;-79
2022/05/12 16:35:04;;;;;;;3.50;2.45;;;26.50;95.30;;;;;;1904509;75;21490;-79
2022/05/12 16:37:57;;;;;;;6.15;2.60;;;26.50;95.50;;;;;;1883784;76;21105;-79
2022/05/12 16:40:49;;;;;;;5.67;2.50;;;26.30;95.90;;;;;;1893863;75;21086;-78
2022/05/12 16:43:41;;;;;;;5.58;2.47;;;26.30;95.90;;;;;;1893697;75;21149;-78
2022/05/12 16:46:32;;;;;;;7.83;2.22;;;26.10;96.00;;;;;;1893556;75;21118;-78
2022/05/12 16:49:25;;;;;;;5.28;2.58;;;26.00;96.20;;;;;;1889022;75;21056;-78
2022/05/12 16:52:18;;;;;;;4.70;2.30;;;26.10;96.30;;;;;;1896396;75;21146;-79
2022/05/12 16:55:12;;;;;;;7.78;3.22;;;26.00;96.60;;;;;;1894284;75;21632;-79
2022/05/12 16:58:05;;;;;;;6.08;2.90;;;26.00;96.90;;;;;;1890883;75;21066;-79
2022/05/12 17:01:01;;;;;;;6.35;3.00;;;25.90;97.20;;;;;;1883690;76;21115;-78
2022/05/12 17:03:53;;;;;;;4.40;2.50;;;26.00;97.10;;;;;;1887410;75;21204;-78
2022/05/12 17:06:45;;;;;;;5.42;2.90;;;26.00;97.00;;;;;;1882516;75;21115;-78
2022/05/12 17:09:37;;;;;;;5.28;2.60;;;26.00;97.10;;;;;;1877198;75;21125;-78
2022/05/12 17:12:30;;;;;;;7.12;2.60;;;26.10;97.00;;;;;;1857285;77;21135;-78
2022/05/12 17:15:24;;;;;;;6.00;2.40;;;26.10;97.10;;;;;;1824060;77;21093;-78
2022/05/12 17:18:15;;;;;;;5.03;3.00;;;25.90;97.50;;;;;;1833952;77;21099;-78
2022/05/12 17:21:09;;;;;;;7.83;2.60;;;25.80;97.60;;;;;;1883544;75;21117;-78
2022/05/12 17:24:01;;;;;;;4.60;2.45;;;25.70;97.60;;;;;;1882252;75;21143;-78
2022/05/12 17:26:53;;;;;;;3.98;2.47;;;25.60;98.10;;;;;;1885536;75;21218;-78
2022/05/12 17:29:46;;;;;;;5.28;2.22;;;25.50;98.30;;;;;;1886332;75;21040;-78
2022/05/12 17:32:37;;;;;;;5.00;2.70;;;25.50;98.40;;;;;;1873445;75;21075;-78
2022/05/12 17:35:29;;;;;;;3.67;2.47;;;25.40;98.70;;;;;;1887503;74;21542;-78
2022/05/12 17:38:20;;;;;;;5.55;2.70;;;25.30;98.70;;;;;;1893821;75;21117;-79
2022/05/12 17:43:57;;;;;;;6.00;2.60;;;25.20;99.10;;;;;;1944167;72;22192;-78
2022/05/12 17:47:07;;;;;;;5.55;2.50;;;25.20;99.20;;;;;;1940259;73;21122;-78